sensor_id;sensor_type;location;lat;lon;timestamp;temperature;humidity
3298;DHT22;1661;53.572;10.174;2022-09-09T00:00:12;16.30;92.00
3298;DHT22;1661;53.572;10.174;2022-09-09T00:02:41;16.30;91.60
3298;DHT22;1661;53.572;10.174;2022-09-09T00:05:17;16.30;91.70
3298;DHT22;1661;53.572;10.174;2022-09-09T00:07:52;16.30;91.90
3298;DHT22;1661;53.572;10.174;2022-09-09T00:10:23;16.30;92.00
3298;DHT22;1661;53.572;10.174;2022-09-09T00:12:57;16.30;92.10
3298;DHT22;1661;53.572;10.174;2022-09-09T00:15:31;16.30;92.20
3298;DHT22;1661;53.572;10.174;2022-09-09T00:18:07;16.20;92.30
3298;DHT22;1661;53.572;10.174;2022-09-09T00:20:41;16.20;92.30
3298;DHT22;1661;53.572;10.174;2022-09-09T00:23:12;16.20;92.30
3298;DHT22;1661;53.572;10.174;2022-09-09T00:25:49;16.20;92.20
3298;DHT22;1661;53.572;10.174;2022-09-09T00:28:18;16.30;92.20
3298;DHT22;1661;53.572;10.174;2022-09-09T00:30:46;16.20;91.90
3298;DHT22;1661;53.572;10.174;2022-09-09T00:33:16;16.20;91.90
3298;DHT22;1661;53.572;10.174;2022-09-09T00:35:46;16.20;91.90
3298;DHT22;1661;53.572;10.174;2022-09-09T00:38:20;16.30;91.50
3298;DHT22;1661;53.572;10.174;2022-09-09T00:40:52;16.30;91.10
3298;DHT22;1661;53.572;10.174;2022-09-09T00:43:25;16.20;91.60
3298;DHT22;1661;53.572;10.174;2022-09-09T00:46:09;16.20;91.70
3298;DHT22;1661;53.572;10.174;2022-09-09T00:48:43;16.20;91.50
3298;DHT22;1661;53.572;10.174;2022-09-09T00:51:15;16.20;91.20
3298;DHT22;1661;53.572;10.174;2022-09-09T00:54:04;16.20;91.10
3298;DHT22;1661;53.572;10.174;2022-09-09T00:56:37;16.20;91.60
3298;DHT22;1661;53.572;10.174;2022-09-09T00:59:24;16.10;91.50
3298;DHT22;1661;53.572;10.174;2022-09-09T01:01:51;16.10;91.90
3298;DHT22;1661;53.572;10.174;2022-09-09T01:04:27;16.10;92.00
3298;DHT22;1661;53.572;10.174;2022-09-09T01:07:03;16.10;91.80
3298;DHT22;1661;53.572;10.174;2022-09-09T01:09:43;16.00;92.00
3298;DHT22;1661;53.572;10.174;2022-09-09T01:12:15;16.10;92.20
3298;DHT22;1661;53.572;10.174;2022-09-09T01:14:45;16.10;92.00
3298;DHT22;1661;53.572;10.174;2022-09-09T01:17:15;16.00;91.80
3298;DHT22;1661;53.572;10.174;2022-09-09T01:19:55;16.10;91.50
3298;DHT22;1661;53.572;10.174;2022-09-09T01:22:33;16.00;92.10
3298;DHT22;1661;53.572;10.174;2022-09-09T01:27:59;16.00;92.70
3298;DHT22;1661;53.572;10.174;2022-09-09T01:30:28;16.00;92.50
3298;DHT22;1661;53.572;10.174;2022-09-09T01:32:56;16.00;92.30
3298;DHT22;1661;53.572;10.174;2022-09-09T01:35:36;16.00;92.30
3298;DHT22;1661;53.572;10.174;2022-09-09T01:38:04;16.00;92.20
3298;DHT22;1661;53.572;10.174;2022-09-09T01:40:31;16.10;91.50
3298;DHT22;1661;53.572;10.174;2022-09-09T01:43:00;16.10;91.70
3298;DHT22;1661;53.572;10.174;2022-09-09T01:45:27;16.10;91.80
3298;DHT22;1661;53.572;10.174;2022-09-09T01:47:53;16.10;91.60
3298;DHT22;1661;53.572;10.174;2022-09-09T01:50:21;16.20;91.40
3298;DHT22;1661;53.572;10.174;2022-09-09T01:52:52;16.20;91.20
3298;DHT22;1661;53.572;10.174;2022-09-09T01:55:29;16.20;91.30
3298;DHT22;1661;53.572;10.174;2022-09-09T01:58:06;16.20;91.40
3298;DHT22;1661;53.572;10.174;2022-09-09T02:00:43;16.20;91.20
3298;DHT22;1661;53.572;10.174;2022-09-09T02:03:20;16.20;91.10
3298;DHT22;1661;53.572;10.174;2022-09-09T02:05:52;16.20;91.60
3298;DHT22;1661;53.572;10.174;2022-09-09T02:08:38;16.20;91.70
3298;DHT22;1661;53.572;10.174;2022-09-09T02:11:11;16.20;91.50
3298;DHT22;1661;53.572;10.174;2022-09-09T02:13:40;16.20;91.50
3298;DHT22;1661;53.572;10.174;2022-09-09T02:16:08;16.20;91.70
3298;DHT22;1661;53.572;10.174;2022-09-09T02:18:40;16.10;91.90
3298;DHT22;1661;53.572;10.174;2022-09-09T02:21:09;16.10;92.00
3298;DHT22;1661;53.572;10.174;2022-09-09T02:23:40;16.10;92.10
3298;DHT22;1661;53.572;10.174;2022-09-09T02:26:09;16.10;92.20
3298;DHT22;1661;53.572;10.174;2022-09-09T02:28:40;16.10;92.00
3298;DHT22;1661;53.572;10.174;2022-09-09T02:31:07;16.10;92.00
3298;DHT22;1661;53.572;10.174;2022-09-09T02:33:38;16.10;92.00
3298;DHT22;1661;53.572;10.174;2022-09-09T02:36:08;16.10;91.90
3298;DHT22;1661;53.572;10.174;2022-09-09T02:38:40;16.10;91.80
3298;DHT22;1661;53.572;10.174;2022-09-09T02:41:09;16.10;91.70
3298;DHT22;1661;53.572;10.174;2022-09-09T02:43:36;16.10;91.40
3298;DHT22;1661;53.572;10.174;2022-09-09T02:46:11;16.00;91.80
3298;DHT22;1661;53.572;10.174;2022-09-09T02:48:47;15.90;92.20
3298;DHT22;1661;53.572;10.174;2022-09-09T02:51:22;15.90;92.40
3298;DHT22;1661;53.572;10.174;2022-09-09T02:53:59;15.90;92.60
3298;DHT22;1661;53.572;10.174;2022-09-09T02:56:31;15.80;92.90
3298;DHT22;1661;53.572;10.174;2022-09-09T02:59:03;15.80;92.90
3298;DHT22;1661;53.572;10.174;2022-09-09T03:01:31;15.80;92.90
3298;DHT22;1661;53.572;10.174;2022-09-09T03:03:58;15.80;92.90
3298;DHT22;1661;53.572;10.174;2022-09-09T03:06:24;15.80;92.80
3298;DHT22;1661;53.572;10.174;2022-09-09T03:08:52;15.80;92.80
3298;DHT22;1661;53.572;10.174;2022-09-09T03:11:19;15.80;92.70
3298;DHT22;1661;53.572;10.174;2022-09-09T03:13:46;15.90;92.50
3298;DHT22;1661;53.572;10.174;2022-09-09T03:16:14;15.90;92.40
3298;DHT22;1661;53.572;10.174;2022-09-09T03:18:42;15.90;92.30
3298;DHT22;1661;53.572;10.174;2022-09-09T03:21:10;15.90;92.00
3298;DHT22;1661;53.572;10.174;2022-09-09T03:23:37;15.90;92.00
3298;DHT22;1661;53.572;10.174;2022-09-09T03:26:03;15.90;92.00
3298;DHT22;1661;53.572;10.174;2022-09-09T03:28:30;15.80;92.00
3298;DHT22;1661;53.572;10.174;2022-09-09T03:30:59;15.80;92.20
3298;DHT22;1661;53.572;10.174;2022-09-09T03:33:26;15.80;92.20
3298;DHT22;1661;53.572;10.174;2022-09-09T03:35:56;15.80;92.00
3298;DHT22;1661;53.572;10.174;2022-09-09T03:38:23;15.70;92.00
3298;DHT22;1661;53.572;10.174;2022-09-09T03:40:50;15.70;91.90
3298;DHT22;1661;53.572;10.174;2022-09-09T03:43:21;15.70;92.00
3298;DHT22;1661;53.572;10.174;2022-09-09T03:45:48;15.70;92.20
3298;DHT22;1661;53.572;10.174;2022-09-09T03:48:15;15.70;92.00
3298;DHT22;1661;53.572;10.174;2022-09-09T03:50:46;15.60;91.90
3298;DHT22;1661;53.572;10.174;2022-09-09T03:53:17;15.60;92.10
3298;DHT22;1661;53.572;10.174;2022-09-09T03:55:44;15.60;92.10
3298;DHT22;1661;53.572;10.174;2022-09-09T03:58:12;15.50;92.50
3298;DHT22;1661;53.572;10.174;2022-09-09T04:00:39;15.50;92.30
3298;DHT22;1661;53.572;10.174;2022-09-09T04:03:07;15.40;92.20
3298;DHT22;1661;53.572;10.174;2022-09-09T04:05:34;15.40;92.30
3298;DHT22;1661;53.572;10.174;2022-09-09T04:08:05;15.40;92.20
3298;DHT22;1661;53.572;10.174;2022-09-09T04:10:33;15.40;92.50
3298;DHT22;1661;53.572;10.174;2022-09-09T04:13:02;15.40;92.60
3298;DHT22;1661;53.572;10.174;2022-09-09T04:15:29;15.40;92.30
3298;DHT22;1661;53.572;10.174;2022-09-09T04:17:56;15.40;92.20
3298;DHT22;1661;53.572;10.174;2022-09-09T04:20:22;15.40;91.80
3298;DHT22;1661;53.572;10.174;2022-09-09T04:22:49;15.50;91.70
3298;DHT22;1661;53.572;10.174;2022-09-09T04:25:16;15.40;92.00
3298;DHT22;1661;53.572;10.174;2022-09-09T04:27:44;15.50;91.90
3298;DHT22;1661;53.572;10.174;2022-09-09T04:30:11;15.40;91.80
3298;DHT22;1661;53.572;10.174;2022-09-09T04:32:38;15.40;91.90
3298;DHT22;1661;53.572;10.174;2022-09-09T04:35:05;15.30;92.20
3298;DHT22;1661;53.572;10.174;2022-09-09T04:37:32;15.30;92.10
3298;DHT22;1661;53.572;10.174;2022-09-09T04:39:59;15.30;92.20
3298;DHT22;1661;53.572;10.174;2022-09-09T04:42:27;15.30;92.60
3298;DHT22;1661;53.572;10.174;2022-09-09T04:44:55;15.30;92.50
3298;DHT22;1661;53.572;10.174;2022-09-09T04:47:22;15.30;92.50
3298;DHT22;1661;53.572;10.174;2022-09-09T04:49:48;15.30;92.60
3298;DHT22;1661;53.572;10.174;2022-09-09T04:52:15;15.30;92.40
3298;DHT22;1661;53.572;10.174;2022-09-09T04:54:42;15.40;92.20
3298;DHT22;1661;53.572;10.174;2022-09-09T04:57:10;15.40;91.80
3298;DHT22;1661;53.572;10.174;2022-09-09T04:59:37;15.40;91.80
3298;DHT22;1661;53.572;10.174;2022-09-09T05:02:06;15.50;91.90
3298;DHT22;1661;53.572;10.174;2022-09-09T05:04:32;15.50;91.60
3298;DHT22;1661;53.572;10.174;2022-09-09T05:06:59;15.50;91.50
3298;DHT22;1661;53.572;10.174;2022-09-09T05:09:26;15.60;91.10
3298;DHT22;1661;53.572;10.174;2022-09-09T05:11:53;15.60;91.10
3298;DHT22;1661;53.572;10.174;2022-09-09T05:14:20;15.60;91.20
3298;DHT22;1661;53.572;10.174;2022-09-09T05:16:47;15.60;91.00
3298;DHT22;1661;53.572;10.174;2022-09-09T05:19:16;15.60;90.70
3298;DHT22;1661;53.572;10.174;2022-09-09T05:21:44;15.60;90.30
3298;DHT22;1661;53.572;10.174;2022-09-09T05:24:11;15.60;89.70
3298;DHT22;1661;53.572;10.174;2022-09-09T05:26:38;15.70;89.40
3298;DHT22;1661;53.572;10.174;2022-09-09T05:29:04;15.70;89.30
3298;DHT22;1661;53.572;10.174;2022-09-09T05:31:31;15.70;89.00
3298;DHT22;1661;53.572;10.174;2022-09-09T05:33:58;15.70;89.20
3298;DHT22;1661;53.572;10.174;2022-09-09T05:36:26;15.70;89.40
3298;DHT22;1661;53.572;10.174;2022-09-09T05:38:53;15.70;88.80
3298;DHT22;1661;53.572;10.174;2022-09-09T05:41:20;15.70;89.40
3298;DHT22;1661;53.572;10.174;2022-09-09T05:43:48;15.70;89.40
3298;DHT22;1661;53.572;10.174;2022-09-09T05:46:16;15.70;89.70
3298;DHT22;1661;53.572;10.174;2022-09-09T05:48:45;15.70;89.80
3298;DHT22;1661;53.572;10.174;2022-09-09T05:51:14;15.70;90.30
3298;DHT22;1661;53.572;10.174;2022-09-09T05:53:44;15.70;90.70
3298;DHT22;1661;53.572;10.174;2022-09-09T05:56:14;15.70;91.00
3298;DHT22;1661;53.572;10.174;2022-09-09T05:58:43;15.70;91.10
3298;DHT22;1661;53.572;10.174;2022-09-09T06:01:11;15.70;90.80
3298;DHT22;1661;53.572;10.174;2022-09-09T06:03:40;15.70;91.20
3298;DHT22;1661;53.572;10.174;2022-09-09T06:06:09;15.70;91.30
3298;DHT22;1661;53.572;10.174;2022-09-09T06:08:38;15.70;91.50
3298;DHT22;1661;53.572;10.174;2022-09-09T06:11:09;15.70;91.50
3298;DHT22;1661;53.572;10.174;2022-09-09T06:13:36;15.80;91.50
3298;DHT22;1661;53.572;10.174;2022-09-09T06:16:05;15.80;91.40
3298;DHT22;1661;53.572;10.174;2022-09-09T06:18:32;15.90;91.10
3298;DHT22;1661;53.572;10.174;2022-09-09T06:21:01;15.90;91.30
3298;DHT22;1661;53.572;10.174;2022-09-09T06:23:29;16.00;91.40
3298;DHT22;1661;53.572;10.174;2022-09-09T06:26:04;16.10;91.70
3298;DHT22;1661;53.572;10.174;2022-09-09T06:28:32;16.10;91.80
3298;DHT22;1661;53.572;10.174;2022-09-09T06:30:59;16.10;91.90
3298;DHT22;1661;53.572;10.174;2022-09-09T06:33:26;16.20;92.00
3298;DHT22;1661;53.572;10.174;2022-09-09T06:35:54;16.30;92.10
3298;DHT22;1661;53.572;10.174;2022-09-09T06:38:22;16.40;92.10
3298;DHT22;1661;53.572;10.174;2022-09-09T06:40:51;16.40;91.80
3298;DHT22;1661;53.572;10.174;2022-09-09T06:43:19;16.50;91.50
3298;DHT22;1661;53.572;10.174;2022-09-09T06:45:54;16.50;91.50
3298;DHT22;1661;53.572;10.174;2022-09-09T06:48:21;16.50;91.20
3298;DHT22;1661;53.572;10.174;2022-09-09T06:50:48;16.60;91.00
3298;DHT22;1661;53.572;10.174;2022-09-09T06:53:16;16.60;91.20
3298;DHT22;1661;53.572;10.174;2022-09-09T06:55:45;16.60;91.40
3298;DHT22;1661;53.572;10.174;2022-09-09T06:58:11;16.70;91.10
3298;DHT22;1661;53.572;10.174;2022-09-09T07:00:38;16.80;90.90
3298;DHT22;1661;53.572;10.174;2022-09-09T07:03:06;16.90;91.10
3298;DHT22;1661;53.572;10.174;2022-09-09T07:05:33;17.00;91.70
3298;DHT22;1661;53.572;10.174;2022-09-09T07:08:00;17.10;91.60
3298;DHT22;1661;53.572;10.174;2022-09-09T07:10:27;17.30;92.10
3298;DHT22;1661;53.572;10.174;2022-09-09T07:12:54;17.50;91.10
3298;DHT22;1661;53.572;10.174;2022-09-09T07:15:21;17.50;90.30
3298;DHT22;1661;53.572;10.174;2022-09-09T07:17:48;17.60;89.10
3298;DHT22;1661;53.572;10.174;2022-09-09T07:20:16;17.60;88.40
3298;DHT22;1661;53.572;10.174;2022-09-09T07:22:43;17.70;88.10
3298;DHT22;1661;53.572;10.174;2022-09-09T07:25:09;17.70;88.10
3298;DHT22;1661;53.572;10.174;2022-09-09T07:27:36;17.80;87.90
3298;DHT22;1661;53.572;10.174;2022-09-09T07:30:04;17.90;87.80
3298;DHT22;1661;53.572;10.174;2022-09-09T07:32:31;17.90;86.60
3298;DHT22;1661;53.572;10.174;2022-09-09T07:34:58;17.80;86.60
3298;DHT22;1661;53.572;10.174;2022-09-09T07:37:26;17.80;86.90
3298;DHT22;1661;53.572;10.174;2022-09-09T07:39:53;17.80;86.80
3298;DHT22;1661;53.572;10.174;2022-09-09T07:42:20;17.80;87.00
3298;DHT22;1661;53.572;10.174;2022-09-09T07:44:46;17.90;87.20
3298;DHT22;1661;53.572;10.174;2022-09-09T07:47:13;17.90;87.50
3298;DHT22;1661;53.572;10.174;2022-09-09T07:49:40;18.00;87.30
3298;DHT22;1661;53.572;10.174;2022-09-09T07:52:07;18.10;87.10
3298;DHT22;1661;53.572;10.174;2022-09-09T07:54:35;18.20;86.80
3298;DHT22;1661;53.572;10.174;2022-09-09T07:57:02;18.20;86.20
3298;DHT22;1661;53.572;10.174;2022-09-09T07:59:29;18.30;86.30
3298;DHT22;1661;53.572;10.174;2022-09-09T08:01:56;18.40;87.40
3298;DHT22;1661;53.572;10.174;2022-09-09T08:04:24;18.50;87.10
3298;DHT22;1661;53.572;10.174;2022-09-09T08:06:55;18.80;86.60
3298;DHT22;1661;53.572;10.174;2022-09-09T08:09:23;18.90;85.40
3298;DHT22;1661;53.572;10.174;2022-09-09T08:11:52;19.00;84.60
3298;DHT22;1661;53.572;10.174;2022-09-09T08:14:19;19.10;84.80
3298;DHT22;1661;53.572;10.174;2022-09-09T08:16:47;19.20;83.60
3298;DHT22;1661;53.572;10.174;2022-09-09T08:19:14;19.30;83.40
3298;DHT22;1661;53.572;10.174;2022-09-09T08:21:42;19.40;82.90
3298;DHT22;1661;53.572;10.174;2022-09-09T08:24:10;19.40;81.60
3298;DHT22;1661;53.572;10.174;2022-09-09T08:26:38;19.50;81.50
3298;DHT22;1661;53.572;10.174;2022-09-09T08:29:07;19.50;82.00
3298;DHT22;1661;53.572;10.174;2022-09-09T08:31:36;19.50;82.20
3298;DHT22;1661;53.572;10.174;2022-09-09T08:34:04;19.60;81.90
3298;DHT22;1661;53.572;10.174;2022-09-09T08:36:33;19.70;81.60
3298;DHT22;1661;53.572;10.174;2022-09-09T08:39:03;19.60;81.00
3298;DHT22;1661;53.572;10.174;2022-09-09T08:41:38;19.80;81.00
3298;DHT22;1661;53.572;10.174;2022-09-09T08:44:11;19.80;80.30
3298;DHT22;1661;53.572;10.174;2022-09-09T08:46:46;19.90;80.60
3298;DHT22;1661;53.572;10.174;2022-09-09T08:49:33;19.90;78.50
3298;DHT22;1661;53.572;10.174;2022-09-09T08:52:09;20.00;78.50
3298;DHT22;1661;53.572;10.174;2022-09-09T08:54:41;20.00;79.40
3298;DHT22;1661;53.572;10.174;2022-09-09T08:57:13;20.10;79.10
3298;DHT22;1661;53.572;10.174;2022-09-09T08:59:42;20.10;77.70
3298;DHT22;1661;53.572;10.174;2022-09-09T09:02:15;20.00;77.20
3298;DHT22;1661;53.572;10.174;2022-09-09T09:04:56;20.00;77.80
3298;DHT22;1661;53.572;10.174;2022-09-09T09:07:35;20.10;77.80
3298;DHT22;1661;53.572;10.174;2022-09-09T09:10:12;20.20;78.10
3298;DHT22;1661;53.572;10.174;2022-09-09T09:12:44;20.30;77.90
3298;DHT22;1661;53.572;10.174;2022-09-09T09:15:18;20.40;77.70
3298;DHT22;1661;53.572;10.174;2022-09-09T09:17:46;20.50;77.70
3298;DHT22;1661;53.572;10.174;2022-09-09T09:20:15;20.60;76.20
3298;DHT22;1661;53.572;10.174;2022-09-09T09:22:48;20.70;76.70
3298;DHT22;1661;53.572;10.174;2022-09-09T09:25:18;20.80;76.10
3298;DHT22;1661;53.572;10.174;2022-09-09T09:27:52;21.00;75.40
3298;DHT22;1661;53.572;10.174;2022-09-09T09:30:25;21.10;75.00
3298;DHT22;1661;53.572;10.174;2022-09-09T09:32:54;21.20;75.80
3298;DHT22;1661;53.572;10.174;2022-09-09T09:35:22;21.20;75.20
3298;DHT22;1661;53.572;10.174;2022-09-09T09:37:49;21.30;74.50
3298;DHT22;1661;53.572;10.174;2022-09-09T09:40:18;21.30;74.50
3298;DHT22;1661;53.572;10.174;2022-09-09T09:42:49;21.30;74.50
3298;DHT22;1661;53.572;10.174;2022-09-09T09:45:26;21.30;74.50
3298;DHT22;1661;53.572;10.174;2022-09-09T09:47:59;21.40;74.50
3298;DHT22;1661;53.572;10.174;2022-09-09T09:50:28;21.60;75.30
3298;DHT22;1661;53.572;10.174;2022-09-09T09:52:55;21.80;74.10
3298;DHT22;1661;53.572;10.174;2022-09-09T09:55:23;21.80;71.80
3298;DHT22;1661;53.572;10.174;2022-09-09T09:57:50;21.80;71.40
3298;DHT22;1661;53.572;10.174;2022-09-09T10:00:18;22.00;71.70
3298;DHT22;1661;53.572;10.174;2022-09-09T10:02:48;22.10;71.80
3298;DHT22;1661;53.572;10.174;2022-09-09T10:05:19;22.30;71.40
3298;DHT22;1661;53.572;10.174;2022-09-09T10:07:47;22.50;71.30
3298;DHT22;1661;53.572;10.174;2022-09-09T10:10:37;22.60;69.70
3298;DHT22;1661;53.572;10.174;2022-09-09T10:13:13;22.60;69.60
3298;DHT22;1661;53.572;10.174;2022-09-09T10:15:45;22.60;69.10
3298;DHT22;1661;53.572;10.174;2022-09-09T10:18:31;22.60;69.50
3298;DHT22;1661;53.572;10.174;2022-09-09T10:21:07;22.60;70.00
3298;DHT22;1661;53.572;10.174;2022-09-09T10:23:47;22.60;70.10
3298;DHT22;1661;53.572;10.174;2022-09-09T10:26:28;22.80;70.50
3298;DHT22;1661;53.572;10.174;2022-09-09T10:29:11;22.80;69.30
3298;DHT22;1661;53.572;10.174;2022-09-09T10:31:49;23.00;69.20
3298;DHT22;1661;53.572;10.174;2022-09-09T10:34:43;23.30;68.20
3298;DHT22;1661;53.572;10.174;2022-09-09T10:37:18;23.70;68.20
3298;DHT22;1661;53.572;10.174;2022-09-09T10:39:53;24.00;67.10
3298;DHT22;1661;53.572;10.174;2022-09-09T10:42:26;24.30;65.30
3298;DHT22;1661;53.572;10.174;2022-09-09T10:45:06;24.50;64.70
3298;DHT22;1661;53.572;10.174;2022-09-09T10:47:56;24.60;64.60
3298;DHT22;1661;53.572;10.174;2022-09-09T10:50:53;24.70;64.70
3298;DHT22;1661;53.572;10.174;2022-09-09T10:53:28;24.90;62.70
3298;DHT22;1661;53.572;10.174;2022-09-09T10:56:02;24.80;62.80
3298;DHT22;1661;53.572;10.174;2022-09-09T10:58:36;24.70;63.00
3298;DHT22;1661;53.572;10.174;2022-09-09T11:01:11;24.50;63.80
3298;DHT22;1661;53.572;10.174;2022-09-09T11:03:40;24.50;64.00
3298;DHT22;1661;53.572;10.174;2022-09-09T11:06:14;24.40;63.60
3298;DHT22;1661;53.572;10.174;2022-09-09T11:08:42;24.30;64.00
3298;DHT22;1661;53.572;10.174;2022-09-09T11:11:13;24.30;64.70
3298;DHT22;1661;53.572;10.174;2022-09-09T11:13:46;24.30;65.70
3298;DHT22;1661;53.572;10.174;2022-09-09T11:16:23;24.20;65.40
3298;DHT22;1661;53.572;10.174;2022-09-09T11:18:55;24.30;65.80
3298;DHT22;1661;53.572;10.174;2022-09-09T11:21:26;24.50;65.40
3298;DHT22;1661;53.572;10.174;2022-09-09T11:24:00;24.70;64.50
3298;DHT22;1661;53.572;10.174;2022-09-09T11:26:31;24.80;64.40
3298;DHT22;1661;53.572;10.174;2022-09-09T11:29:11;24.80;63.30
3298;DHT22;1661;53.572;10.174;2022-09-09T11:31:46;24.90;64.00
3298;DHT22;1661;53.572;10.174;2022-09-09T11:34:31;25.10;63.80
3298;DHT22;1661;53.572;10.174;2022-09-09T11:40:15;24.90;62.60
3298;DHT22;1661;53.572;10.174;2022-09-09T11:42:43;25.00;64.40
3298;DHT22;1661;53.572;10.174;2022-09-09T11:45:21;25.10;62.80
3298;DHT22;1661;53.572;10.174;2022-09-09T11:47:53;25.20;62.50
3298;DHT22;1661;53.572;10.174;2022-09-09T11:50:34;25.20;61.70
3298;DHT22;1661;53.572;10.174;2022-09-09T11:53:18;25.30;61.30
3298;DHT22;1661;53.572;10.174;2022-09-09T11:55:48;25.10;62.70
3298;DHT22;1661;53.572;10.174;2022-09-09T11:58:27;25.10;63.10
3298;DHT22;1661;53.572;10.174;2022-09-09T12:00:58;25.00;63.10
3298;DHT22;1661;53.572;10.174;2022-09-09T12:03:43;25.00;62.40
3298;DHT22;1661;53.572;10.174;2022-09-09T12:06:15;24.80;63.30
3298;DHT22;1661;53.572;10.174;2022-09-09T12:08:48;24.70;62.50
3298;DHT22;1661;53.572;10.174;2022-09-09T12:11:28;24.50;63.60
3298;DHT22;1661;53.572;10.174;2022-09-09T12:13:57;24.30;63.70
3298;DHT22;1661;53.572;10.174;2022-09-09T12:16:31;24.30;63.50
3298;DHT22;1661;53.572;10.174;2022-09-09T12:19:07;24.20;64.30
3298;DHT22;1661;53.572;10.174;2022-09-09T12:21:46;24.20;64.20
3298;DHT22;1661;53.572;10.174;2022-09-09T12:24:24;24.30;64.20
3298;DHT22;1661;53.572;10.174;2022-09-09T12:26:58;24.20;64.30
3298;DHT22;1661;53.572;10.174;2022-09-09T12:29:30;23.90;64.90
3298;DHT22;1661;53.572;10.174;2022-09-09T12:32:05;23.50;66.00
3298;DHT22;1661;53.572;10.174;2022-09-09T12:34:38;23.30;66.80
3298;DHT22;1661;53.572;10.174;2022-09-09T12:37:11;23.20;66.80
3298;DHT22;1661;53.572;10.174;2022-09-09T12:39:45;23.20;67.40
3298;DHT22;1661;53.572;10.174;2022-09-09T12:42:18;23.10;67.90
3298;DHT22;1661;53.572;10.174;2022-09-09T12:44:55;23.00;68.40
3298;DHT22;1661;53.572;10.174;2022-09-09T12:47:30;23.10;68.90
3298;DHT22;1661;53.572;10.174;2022-09-09T12:50:00;23.10;69.40
3298;DHT22;1661;53.572;10.174;2022-09-09T12:52:30;23.10;69.40
3298;DHT22;1661;53.572;10.174;2022-09-09T12:55:02;23.20;69.70
3298;DHT22;1661;53.572;10.174;2022-09-09T12:57:34;23.20;69.60
3298;DHT22;1661;53.572;10.174;2022-09-09T13:00:11;23.30;69.50
3298;DHT22;1661;53.572;10.174;2022-09-09T13:02:47;23.20;69.00
3298;DHT22;1661;53.572;10.174;2022-09-09T13:05:18;23.10;69.10
3298;DHT22;1661;53.572;10.174;2022-09-09T13:07:45;22.90;69.50
3298;DHT22;1661;53.572;10.174;2022-09-09T13:10:16;22.80;70.20
3298;DHT22;1661;53.572;10.174;2022-09-09T13:12:46;22.80;70.70
3298;DHT22;1661;53.572;10.174;2022-09-09T13:15:19;22.80;71.40
3298;DHT22;1661;53.572;10.174;2022-09-09T13:17:54;22.60;72.50
3298;DHT22;1661;53.572;10.174;2022-09-09T13:20:22;22.40;73.10
3298;DHT22;1661;53.572;10.174;2022-09-09T13:22:51;22.20;74.00
3298;DHT22;1661;53.572;10.174;2022-09-09T13:25:22;22.20;74.90
3298;DHT22;1661;53.572;10.174;2022-09-09T13:27:58;22.00;75.20
3298;DHT22;1661;53.572;10.174;2022-09-09T13:30:28;22.10;75.90
3298;DHT22;1661;53.572;10.174;2022-09-09T13:33:21;22.10;75.20
3298;DHT22;1661;53.572;10.174;2022-09-09T13:35:52;22.00;75.10
3298;DHT22;1661;53.572;10.174;2022-09-09T13:38:20;21.90;75.00
3298;DHT22;1661;53.572;10.174;2022-09-09T13:40:57;21.90;75.20
3298;DHT22;1661;53.572;10.174;2022-09-09T13:43:25;21.90;75.90
3298;DHT22;1661;53.572;10.174;2022-09-09T13:45:54;21.80;76.10
3298;DHT22;1661;53.572;10.174;2022-09-09T13:48:24;21.90;76.30
3298;DHT22;1661;53.572;10.174;2022-09-09T13:50:56;21.90;76.20
3298;DHT22;1661;53.572;10.174;2022-09-09T13:53:23;21.80;76.60
3298;DHT22;1661;53.572;10.174;2022-09-09T13:55:50;21.60;76.50
3298;DHT22;1661;53.572;10.174;2022-09-09T13:58:19;21.50;76.40
3298;DHT22;1661;53.572;10.174;2022-09-09T14:00:48;21.30;76.70
3298;DHT22;1661;53.572;10.174;2022-09-09T14:03:15;21.20;77.00
3298;DHT22;1661;53.572;10.174;2022-09-09T14:05:43;21.20;76.30
3298;DHT22;1661;53.572;10.174;2022-09-09T14:08:16;21.00;76.80
3298;DHT22;1661;53.572;10.174;2022-09-09T14:10:44;21.00;76.70
3298;DHT22;1661;53.572;10.174;2022-09-09T14:13:11;21.00;76.80
3298;DHT22;1661;53.572;10.174;2022-09-09T14:15:39;20.90;76.80
3298;DHT22;1661;53.572;10.174;2022-09-09T14:18:08;20.90;76.50
3298;DHT22;1661;53.572;10.174;2022-09-09T14:20:35;20.80;76.90
3298;DHT22;1661;53.572;10.174;2022-09-09T14:23:02;20.70;77.10
3298;DHT22;1661;53.572;10.174;2022-09-09T14:25:29;20.60;77.20
3298;DHT22;1661;53.572;10.174;2022-09-09T14:27:56;20.50;77.40
3298;DHT22;1661;53.572;10.174;2022-09-09T14:30:23;20.40;77.80
3298;DHT22;1661;53.572;10.174;2022-09-09T14:32:51;20.40;77.60
3298;DHT22;1661;53.572;10.174;2022-09-09T14:35:18;20.40;78.00
3298;DHT22;1661;53.572;10.174;2022-09-09T14:37:44;20.40;77.90
3298;DHT22;1661;53.572;10.174;2022-09-09T14:40:11;20.40;77.90
3298;DHT22;1661;53.572;10.174;2022-09-09T14:42:39;20.40;78.00
3298;DHT22;1661;53.572;10.174;2022-09-09T14:45:07;20.40;77.80
3298;DHT22;1661;53.572;10.174;2022-09-09T14:47:34;20.40;77.40
3298;DHT22;1661;53.572;10.174;2022-09-09T14:50:03;20.40;77.80
3298;DHT22;1661;53.572;10.174;2022-09-09T14:52:30;20.30;78.70
3298;DHT22;1661;53.572;10.174;2022-09-09T14:54:57;20.30;78.90
3298;DHT22;1661;53.572;10.174;2022-09-09T14:57:24;20.20;78.80
3298;DHT22;1661;53.572;10.174;2022-09-09T14:59:50;20.10;79.70
3298;DHT22;1661;53.572;10.174;2022-09-09T15:02:17;20.10;79.90
3298;DHT22;1661;53.572;10.174;2022-09-09T15:04:44;20.00;80.30
3298;DHT22;1661;53.572;10.174;2022-09-09T15:07:12;19.80;80.60
3298;DHT22;1661;53.572;10.174;2022-09-09T15:09:39;19.70;80.30
3298;DHT22;1661;53.572;10.174;2022-09-09T15:12:06;19.60;80.60
3298;DHT22;1661;53.572;10.174;2022-09-09T15:14:32;19.60;80.70
3298;DHT22;1661;53.572;10.174;2022-09-09T15:17:00;19.50;80.60
3298;DHT22;1661;53.572;10.174;2022-09-09T15:19:27;19.40;80.30
3298;DHT22;1661;53.572;10.174;2022-09-09T15:21:54;19.30;81.00
3298;DHT22;1661;53.572;10.174;2022-09-09T15:24:22;19.30;81.30
3298;DHT22;1661;53.572;10.174;2022-09-09T15:26:48;19.30;81.10
3298;DHT22;1661;53.572;10.174;2022-09-09T15:29:15;19.30;81.10
3298;DHT22;1661;53.572;10.174;2022-09-09T15:31:42;19.30;81.00
3298;DHT22;1661;53.572;10.174;2022-09-09T15:34:09;19.30;81.00
3298;DHT22;1661;53.572;10.174;2022-09-09T15:36:37;19.30;81.10
3298;DHT22;1661;53.572;10.174;2022-09-09T15:39:05;19.30;81.60
3298;DHT22;1661;53.572;10.174;2022-09-09T15:41:34;19.40;81.50
3298;DHT22;1661;53.572;10.174;2022-09-09T15:44:01;19.40;82.10
3298;DHT22;1661;53.572;10.174;2022-09-09T15:46:30;19.50;81.80
3298;DHT22;1661;53.572;10.174;2022-09-09T15:49:02;19.50;81.90
3298;DHT22;1661;53.572;10.174;2022-09-09T15:51:29;19.60;82.40
3298;DHT22;1661;53.572;10.174;2022-09-09T15:53:57;19.60;82.10
3298;DHT22;1661;53.572;10.174;2022-09-09T15:56:24;19.60;82.20
3298;DHT22;1661;53.572;10.174;2022-09-09T15:58:55;19.70;82.70
3298;DHT22;1661;53.572;10.174;2022-09-09T16:01:22;19.60;83.30
3298;DHT22;1661;53.572;10.174;2022-09-09T16:03:49;19.60;83.80
3298;DHT22;1661;53.572;10.174;2022-09-09T16:06:17;19.60;83.10
3298;DHT22;1661;53.572;10.174;2022-09-09T16:08:47;19.60;83.90
3298;DHT22;1661;53.572;10.174;2022-09-09T16:11:17;19.60;83.80